Aviation Digital Data Service (ADDS)

Output produced by TAFs form (0454 UTC 30 March 2017)
found at http://www.aviationweather.gov/adds/tafs/
 
METAR text: LFPG 300430Z 14005KT CAVOK 11/06 Q1025 NOSIG
Conditions at: LFPG (CHARLES DE GAULL, FR) observed 0430 UTC 30 March 2017
Temperature: 11.0°C (52°F)
Dewpoint: 6.0°C (43°F) [RH = 71%]
Pressure (altimeter): 30.27 inches Hg (1025.0 mb)
Winds: from the SE (140 degrees) at 6 MPH (5 knots; 2.6 m/s)
Visibility: 6 or more miles (10+ km)
Ceiling: ceiling and visibility are OK
Clouds: unknown
Weather: no significant weather observed at this time

Forecast for: LFPG (CHARLES DE GAULL, FR)
Text: TAF AMD LFPG 292318Z 3000/3106 15010KT CAVOK TX23/3015Z TN09/3006Z
Forecast period: 0000 UTC 30 March 2017 to 0600 UTC 31 March 2017
Forecast type: FROM: standard forecast or significant change
Winds: from the SSE (150 degrees) at 12 MPH (10 knots; 5.2 m/s)
Visibility: 6 or more miles (10+ km)
Clouds: not forecast
Weather: no significant weather forecast for this period